createdAt,value
2018-06-20T00:00:00.082Z,1017.37
2018-06-20T00:00:35.876Z,1017.36
2018-06-20T00:01:11.035Z,1017.39
2018-06-20T00:01:46.440Z,1017.36
2018-06-20T00:02:21.787Z,1017.32
2018-06-20T00:02:57.189Z,1017.36
2018-06-20T00:03:32.212Z,1017.34
2018-06-20T00:04:07.736Z,1017.34
2018-06-20T00:04:43.286Z,1017.30
2018-06-20T00:05:18.692Z,1017.28
2018-06-20T00:05:54.355Z,1017.31
2018-06-20T00:06:29.974Z,1017.29
2018-06-20T00:07:05.504Z,1017.31
2018-06-20T00:07:40.762Z,1017.26
2018-06-20T00:08:16.285Z,1017.30
2018-06-20T00:08:51.605Z,1017.29
2018-06-20T00:09:27.060Z,1017.28
2018-06-20T00:10:02.638Z,1017.25
2018-06-20T00:10:38.124Z,1017.30
2018-06-20T00:11:13.546Z,1017.26
2018-06-20T00:11:48.882Z,1017.24
2018-06-20T00:12:24.087Z,1017.23
2018-06-20T00:12:59.514Z,1017.23
2018-06-20T00:13:34.626Z,1017.24
2018-06-20T00:14:10.365Z,1017.22
2018-06-20T00:14:45.660Z,1017.21
2018-06-20T00:15:20.748Z,1017.19
2018-06-20T00:15:56.087Z,1017.20
2018-06-20T00:16:31.539Z,1017.21
2018-06-20T00:17:06.851Z,1017.20
2018-06-20T00:17:42.225Z,1017.17
2018-06-20T00:18:17.565Z,1017.16
2018-06-20T00:18:52.927Z,1017.13
2018-06-20T00:19:28.140Z,1017.15
2018-06-20T00:20:03.975Z,1017.17
2018-06-20T00:20:39.678Z,1017.15
2018-06-20T00:21:15.032Z,1017.14
2018-06-20T00:21:50.396Z,1017.16
2018-06-20T00:22:25.703Z,1017.14
2018-06-20T00:23:00.929Z,1017.11
2018-06-20T00:23:36.568Z,1017.10
2018-06-20T00:24:11.978Z,1017.10
2018-06-20T00:24:47.296Z,1017.08
2018-06-20T00:25:22.799Z,1017.07
2018-06-20T00:25:58.367Z,1017.09
2018-06-20T00:26:33.650Z,1017.08
2018-06-20T00:27:09.126Z,1017.06
2018-06-20T00:27:44.963Z,1017.07
2018-06-20T00:28:19.883Z,1017.08
2018-06-20T00:28:55.099Z,1017.06
2018-06-20T00:29:30.547Z,1017.06
2018-06-20T00:30:06.153Z,1017.04
2018-06-20T00:30:41.491Z,1017.07
2018-06-20T00:31:17.314Z,1017.04
2018-06-20T00:31:52.762Z,1017.07
2018-06-20T00:32:28.581Z,1017.06
2018-06-20T00:33:03.945Z,1017.04
2018-06-20T00:33:39.747Z,1017.03
2018-06-20T00:34:14.992Z,1017.04
2018-06-20T00:34:52.288Z,1017.02
2018-06-20T00:35:27.727Z,1017.05
2018-06-20T00:36:04.023Z,1017.02
2018-06-20T00:36:43.821Z,1017.04
2018-06-20T00:37:19.463Z,1017.03
2018-06-20T00:37:55.324Z,1017.03
2018-06-20T00:38:30.719Z,1017.04
2018-06-20T00:39:06.074Z,1017.03
2018-06-20T00:39:41.311Z,1017.04
2018-06-20T00:40:16.631Z,1017.01
2018-06-20T00:40:52.140Z,1016.99
2018-06-20T00:41:27.461Z,1017.00
2018-06-20T00:42:02.552Z,1017.00
2018-06-20T00:42:38.541Z,1016.99
2018-06-20T00:43:13.867Z,1016.99
2018-06-20T00:43:49.526Z,1016.98
2018-06-20T00:44:24.732Z,1016.98
2018-06-20T00:45:00.170Z,1016.95
2018-06-20T00:45:35.981Z,1016.95
2018-06-20T00:46:11.543Z,1016.97
2018-06-20T00:46:46.673Z,1016.99
2018-06-20T00:47:22.141Z,1016.96
2018-06-20T00:47:57.758Z,1016.98
2018-06-20T00:48:33.109Z,1017.02
2018-06-20T00:49:08.619Z,1017.02
2018-06-20T00:49:44.068Z,1017.00
2018-06-20T00:50:19.800Z,1017.00
2018-06-20T00:50:55.514Z,1017.01
2018-06-20T00:51:33.119Z,1016.97
2018-06-20T00:52:08.503Z,1016.98
2018-06-20T00:52:44.098Z,1016.97
2018-06-20T00:53:19.325Z,1016.95
2018-06-20T00:53:55.017Z,1016.90
2018-06-20T00:54:30.165Z,1016.91
2018-06-20T00:55:05.578Z,1016.91
2018-06-20T00:55:41.013Z,1016.88
2018-06-20T00:56:16.461Z,1016.92
2018-06-20T00:56:51.813Z,1016.91
2018-06-20T00:57:27.062Z,1016.93
2018-06-20T00:58:02.700Z,1016.90
2018-06-20T00:58:38.028Z,1016.94
2018-06-20T00:59:13.473Z,1016.90
2018-06-20T00:59:48.975Z,1016.96
2018-06-20T01:00:24.303Z,1016.96
2018-06-20T01:01:00.311Z,1016.93
2018-06-20T01:01:35.738Z,1016.96
2018-06-20T01:02:11.150Z,1016.93
2018-06-20T01:02:46.619Z,1016.91
2018-06-20T01:03:22.039Z,1016.91
2018-06-20T01:03:57.603Z,1016.93
2018-06-20T01:04:32.830Z,1016.91
2018-06-20T01:05:08.088Z,1016.85
2018-06-20T01:05:43.501Z,1016.89
2018-06-20T01:06:18.938Z,1016.85
2018-06-20T01:06:54.458Z,1016.84
2018-06-20T01:07:30.018Z,1016.84
2018-06-20T01:08:05.217Z,1016.87
2018-06-20T01:08:40.434Z,1016.82
2018-06-20T01:09:15.840Z,1016.85
2018-06-20T01:09:51.071Z,1016.80
2018-06-20T01:10:26.383Z,1016.81
2018-06-20T01:11:01.759Z,1016.83
2018-06-20T01:11:37.429Z,1016.82
2018-06-20T01:12:12.920Z,1016.79
2018-06-20T01:12:48.231Z,1016.78
2018-06-20T01:13:23.584Z,1016.82
2018-06-20T01:13:59.805Z,1016.79
2018-06-20T01:14:34.966Z,1016.76
2018-06-20T01:15:10.761Z,1016.77
2018-06-20T01:15:45.980Z,1016.78
2018-06-20T01:16:21.410Z,1016.78
2018-06-20T01:16:56.566Z,1016.77
2018-06-20T01:17:32.309Z,1016.77
2018-06-20T01:18:07.556Z,1016.74
2018-06-20T01:18:42.752Z,1016.77
2018-06-20T01:19:17.891Z,1016.78
2018-06-20T01:19:53.696Z,1016.77
2018-06-20T01:20:29.628Z,1016.77
2018-06-20T01:21:05.019Z,1016.80
2018-06-20T01:21:40.551Z,1016.77
2018-06-20T01:22:16.160Z,1016.75
2018-06-20T01:22:51.296Z,1016.75
2018-06-20T01:23:26.319Z,1016.74
2018-06-20T01:24:01.771Z,1016.73
2018-06-20T01:24:37.080Z,1016.73
2018-06-20T01:25:12.841Z,1016.72
2018-06-20T01:25:47.949Z,1016.74
2018-06-20T01:26:23.304Z,1016.72
2018-06-20T01:26:58.642Z,1016.72
2018-06-20T01:27:34.041Z,1016.73
2018-06-20T01:28:09.572Z,1016.76
2018-06-20T01:28:44.749Z,1016.73
2018-06-20T01:29:20.161Z,1016.74
2018-06-20T01:29:55.589Z,1016.76
2018-06-20T01:30:30.921Z,1016.76
2018-06-20T01:31:06.252Z,1016.73
2018-06-20T01:31:41.779Z,1016.76
2018-06-20T01:32:17.052Z,1016.74
2018-06-20T01:32:52.180Z,1016.74
2018-06-20T01:33:27.643Z,1016.76
2018-06-20T01:34:02.980Z,1016.75
2018-06-20T01:34:38.616Z,1016.76
2018-06-20T01:35:14.153Z,1016.78
2018-06-20T01:35:50.587Z,1016.77
2018-06-20T01:36:26.033Z,1016.78
2018-06-20T01:37:01.267Z,1016.78
2018-06-20T01:37:36.412Z,1016.76
2018-06-20T01:38:11.692Z,1016.74
2018-06-20T01:38:47.087Z,1016.76
2018-06-20T01:39:22.727Z,1016.77
2018-06-20T01:39:58.336Z,1016.77
2018-06-20T01:40:33.788Z,1016.79
2018-06-20T01:41:09.312Z,1016.75
2018-06-20T01:41:44.992Z,1016.75
2018-06-20T01:42:20.414Z,1016.74
2018-06-20T01:42:55.661Z,1016.78
2018-06-20T01:43:30.951Z,1016.74
2018-06-20T01:44:06.481Z,1016.75
2018-06-20T01:44:41.581Z,1016.79
2018-06-20T01:45:16.725Z,1016.77
2018-06-20T01:45:52.053Z,1016.74
2018-06-20T01:46:27.582Z,1016.76
2018-06-20T01:47:02.895Z,1016.75
2018-06-20T01:47:38.756Z,1016.76
2018-06-20T01:48:14.083Z,1016.78
2018-06-20T01:48:49.536Z,1016.78
2018-06-20T01:49:25.148Z,1016.77
2018-06-20T01:50:00.795Z,1016.76
2018-06-20T01:50:36.391Z,1016.77
2018-06-20T01:51:11.751Z,1016.75
2018-06-20T01:51:47.224Z,1016.73
2018-06-20T01:52:22.700Z,1016.75
2018-06-20T01:52:57.901Z,1016.73
2018-06-20T01:53:32.931Z,1016.75
2018-06-20T01:54:08.184Z,1016.75
2018-06-20T01:54:43.917Z,1016.71
2018-06-20T01:55:19.326Z,1016.69
2018-06-20T01:55:54.888Z,1016.73
2018-06-20T01:56:30.015Z,1016.74
2018-06-20T01:57:05.571Z,1016.74
2018-06-20T01:57:40.910Z,1016.73
2018-06-20T01:58:16.025Z,1016.71
2018-06-20T01:58:54.039Z,1016.72
2018-06-20T01:59:29.279Z,1016.73
2018-06-20T02:00:04.587Z,1016.75
2018-06-20T02:00:40.503Z,1016.73
2018-06-20T02:01:16.133Z,1016.74
2018-06-20T02:01:51.582Z,1016.70
2018-06-20T02:02:26.907Z,1016.72
2018-06-20T02:03:02.255Z,1016.70
2018-06-20T02:03:37.847Z,1016.70
2018-06-20T02:04:13.192Z,1016.70
2018-06-20T02:04:48.631Z,1016.69
2018-06-20T02:05:24.053Z,1016.67
2018-06-20T02:05:59.293Z,1016.69
2018-06-20T02:06:34.546Z,1016.69
2018-06-20T02:07:09.976Z,1016.71
2018-06-20T02:07:45.404Z,1016.68
2018-06-20T02:08:20.821Z,1016.70
2018-06-20T02:08:57.970Z,1016.68
2018-06-20T02:09:33.393Z,1016.67
2018-06-20T02:10:08.664Z,1016.70
2018-06-20T02:10:43.900Z,1016.67
2018-06-20T02:11:19.361Z,1016.66
2018-06-20T02:11:54.669Z,1016.65
2018-06-20T02:12:30.143Z,1016.65
2018-06-20T02:13:05.543Z,1016.67
2018-06-20T02:13:41.107Z,1016.70
2018-06-20T02:14:16.317Z,1016.70
2018-06-20T02:14:51.609Z,1016.67
2018-06-20T02:15:26.763Z,1016.67
2018-06-20T02:16:02.388Z,1016.68
2018-06-20T02:16:38.003Z,1016.67
2018-06-20T02:17:13.480Z,1016.68
2018-06-20T02:17:48.883Z,1016.66
2018-06-20T02:18:24.532Z,1016.64
2018-06-20T02:18:59.865Z,1016.65
2018-06-20T02:19:35.300Z,1016.63
2018-06-20T02:20:11.211Z,1016.63
2018-06-20T02:20:46.743Z,1016.60
2018-06-20T02:21:22.129Z,1016.61
2018-06-20T02:21:57.356Z,1016.61
2018-06-20T02:22:32.677Z,1016.59
2018-06-20T02:23:08.137Z,1016.54
2018-06-20T02:23:43.328Z,1016.55
2018-06-20T02:24:18.881Z,1016.57
2018-06-20T02:24:53.983Z,1016.55
2018-06-20T02:25:29.195Z,1016.52
2018-06-20T02:26:04.422Z,1016.55
2018-06-20T02:26:39.766Z,1016.55
2018-06-20T02:27:15.398Z,1016.55
2018-06-20T02:27:50.879Z,1016.54
2018-06-20T02:28:26.613Z,1016.54
2018-06-20T02:29:02.073Z,1016.58
2018-06-20T02:29:37.285Z,1016.57
2018-06-20T02:30:12.495Z,1016.57
2018-06-20T02:30:48.101Z,1016.57
2018-06-20T02:31:23.581Z,1016.57
2018-06-20T02:31:59.128Z,1016.54
2018-06-20T02:32:34.596Z,1016.56
2018-06-20T02:33:10.352Z,1016.56
2018-06-20T02:33:45.898Z,1016.52
2018-06-20T02:34:21.208Z,1016.50
2018-06-20T02:34:56.463Z,1016.51
2018-06-20T02:35:31.691Z,1016.48
2018-06-20T02:36:07.134Z,1016.49
2018-06-20T02:36:42.512Z,1016.50
2018-06-20T02:37:17.902Z,1016.48
2018-06-20T02:37:53.216Z,1016.50
2018-06-20T02:38:28.753Z,1016.46
2018-06-20T02:39:04.059Z,1016.49
2018-06-20T02:39:39.566Z,1016.49
2018-06-20T02:40:14.763Z,1016.47
2018-06-20T02:40:50.382Z,1016.48
2018-06-20T02:41:25.687Z,1016.49
2018-06-20T02:42:01.034Z,1016.45
2018-06-20T02:42:36.470Z,1016.43
2018-06-20T02:43:11.704Z,1016.44
2018-06-20T02:43:46.913Z,1016.45
2018-06-20T02:44:22.353Z,1016.43
2018-06-20T02:44:57.574Z,1016.42
2018-06-20T02:45:32.887Z,1016.37
2018-06-20T02:46:08.312Z,1016.37
2018-06-20T02:46:43.747Z,1016.38
2018-06-20T02:47:19.054Z,1016.40
2018-06-20T02:47:54.480Z,1016.39
2018-06-20T02:48:30.072Z,1016.37
2018-06-20T02:49:05.594Z,1016.39
2018-06-20T02:49:41.196Z,1016.37
2018-06-20T02:50:16.638Z,1016.40
2018-06-20T02:50:52.361Z,1016.39
2018-06-20T02:51:27.906Z,1016.38
2018-06-20T02:52:03.425Z,1016.39
2018-06-20T02:52:39.007Z,1016.35
2018-06-20T02:53:14.200Z,1016.40
2018-06-20T02:53:49.470Z,1016.40
2018-06-20T02:54:24.966Z,1016.35
2018-06-20T02:55:00.299Z,1016.36
2018-06-20T02:55:35.952Z,1016.34
2018-06-20T02:56:11.387Z,1016.36
2018-06-20T02:56:46.600Z,1016.39
2018-06-20T02:57:22.195Z,1016.38
2018-06-20T02:57:57.376Z,1016.37
2018-06-20T02:58:32.804Z,1016.41
2018-06-20T02:59:08.029Z,1016.40
2018-06-20T02:59:44.552Z,1016.37
2018-06-20T03:00:20.075Z,1016.38
2018-06-20T03:00:55.807Z,1016.37
2018-06-20T03:01:31.045Z,1016.41
2018-06-20T03:02:06.419Z,1016.41
2018-06-20T03:02:44.278Z,1016.38
2018-06-20T03:03:19.503Z,1016.37
2018-06-20T03:03:55.120Z,1016.32
2018-06-20T03:04:30.782Z,1016.33
2018-06-20T03:05:06.086Z,1016.32
2018-06-20T03:05:41.408Z,1016.35
2018-06-20T03:06:16.628Z,1016.32
2018-06-20T03:06:51.864Z,1016.31
2018-06-20T03:07:27.126Z,1016.34
2018-06-20T03:08:02.272Z,1016.36
2018-06-20T03:08:38.513Z,1016.34
2018-06-20T03:09:14.052Z,1016.34
2018-06-20T03:09:49.374Z,1016.36
2018-06-20T03:10:24.708Z,1016.35
2018-06-20T03:11:00.153Z,1016.34
2018-06-20T03:11:35.487Z,1016.34
2018-06-20T03:12:10.943Z,1016.34
2018-06-20T03:12:46.291Z,1016.35
2018-06-20T03:13:21.902Z,1016.35
2018-06-20T03:13:57.493Z,1016.37
2018-06-20T03:14:32.582Z,1016.36
2018-06-20T03:15:08.031Z,1016.35
2018-06-20T03:15:43.459Z,1016.36
2018-06-20T03:16:18.887Z,1016.33
2018-06-20T03:16:54.538Z,1016.34
2018-06-20T03:17:30.008Z,1016.31
2018-06-20T03:18:05.523Z,1016.29
2018-06-20T03:18:40.759Z,1016.31
2018-06-20T03:19:15.989Z,1016.29
2018-06-20T03:19:51.439Z,1016.32
2018-06-20T03:20:27.049Z,1016.32
2018-06-20T03:21:02.424Z,1016.33
2018-06-20T03:21:37.641Z,1016.32
2018-06-20T03:22:13.110Z,1016.33
2018-06-20T03:22:48.525Z,1016.33
2018-06-20T03:23:24.001Z,1016.35
2018-06-20T03:23:59.130Z,1016.32
2018-06-20T03:24:35.210Z,1016.31
2018-06-20T03:25:10.326Z,1016.33
2018-06-20T03:25:45.678Z,1016.32
2018-06-20T03:26:21.715Z,1016.29
2018-06-20T03:26:56.937Z,1016.33
2018-06-20T03:27:32.537Z,1016.34
2018-06-20T03:28:08.061Z,1016.31
2018-06-20T03:28:43.298Z,1016.29
2018-06-20T03:29:18.664Z,1016.29
2018-06-20T03:29:54.111Z,1016.26
2018-06-20T03:30:29.933Z,1016.28
2018-06-20T03:31:05.433Z,1016.26
2018-06-20T03:31:41.277Z,1016.28
2018-06-20T03:32:16.731Z,1016.27
2018-06-20T03:32:52.272Z,1016.27
2018-06-20T03:33:27.393Z,1016.24
2018-06-20T03:34:02.658Z,1016.27
2018-06-20T03:34:37.973Z,1016.22
2018-06-20T03:35:13.237Z,1016.24
2018-06-20T03:35:48.653Z,1016.23
2018-06-20T03:36:24.480Z,1016.19
2018-06-20T03:37:00.498Z,1016.19
2018-06-20T03:37:36.182Z,1016.18
2018-06-20T03:38:11.614Z,1016.19
2018-06-20T03:38:47.036Z,1016.19
2018-06-20T03:39:22.273Z,1016.19
2018-06-20T03:39:57.648Z,1016.16
2018-06-20T03:40:33.282Z,1016.19
2018-06-20T03:41:08.529Z,1016.17
2018-06-20T03:41:43.941Z,1016.19
2018-06-20T03:42:19.648Z,1016.18
2018-06-20T03:42:55.146Z,1016.18
2018-06-20T03:43:30.722Z,1016.18
2018-06-20T03:44:06.139Z,1016.14
2018-06-20T03:44:41.768Z,1016.14
2018-06-20T03:45:17.375Z,1016.16
2018-06-20T03:45:52.644Z,1016.19
2018-06-20T03:46:28.358Z,1016.17
2018-06-20T03:47:03.528Z,1016.18
2018-06-20T03:47:38.962Z,1016.19
2018-06-20T03:48:14.416Z,1016.18
2018-06-20T03:48:49.736Z,1016.20
2018-06-20T03:49:24.872Z,1016.17
2018-06-20T03:50:00.526Z,1016.17
2018-06-20T03:50:35.788Z,1016.17
2018-06-20T03:51:11.108Z,1016.15
2018-06-20T03:51:46.457Z,1016.17
2018-06-20T03:52:21.808Z,1016.20
2018-06-20T03:52:57.697Z,1016.19
2018-06-20T03:53:33.413Z,1016.19
2018-06-20T03:54:08.840Z,1016.23
2018-06-20T03:54:44.341Z,1016.20
2018-06-20T03:55:19.989Z,1016.18
2018-06-20T03:55:55.410Z,1016.18
2018-06-20T03:56:30.858Z,1016.19
2018-06-20T03:57:06.290Z,1016.18
2018-06-20T03:57:41.545Z,1016.17
2018-06-20T03:58:17.278Z,1016.15
2018-06-20T03:58:52.531Z,1016.18
2018-06-20T03:59:27.873Z,1016.18
2018-06-20T04:00:03.107Z,1016.17
2018-06-20T04:00:39.249Z,1016.17
2018-06-20T04:01:16.086Z,1016.18
2018-06-20T04:01:51.694Z,1016.18
2018-06-20T04:02:27.113Z,1016.16
2018-06-20T04:03:02.317Z,1016.17
2018-06-20T04:03:37.991Z,1016.13
2018-06-20T04:04:13.177Z,1016.14
2018-06-20T04:04:51.217Z,1016.13
2018-06-20T04:05:26.570Z,1016.13
2018-06-20T04:06:02.154Z,1016.14
2018-06-20T04:06:37.760Z,1016.12
2018-06-20T04:07:13.128Z,1016.14
2018-06-20T04:07:48.451Z,1016.17
2018-06-20T04:08:24.430Z,1016.16
2018-06-20T04:08:59.630Z,1016.16
2018-06-20T04:09:35.129Z,1016.15
2018-06-20T04:10:10.698Z,1016.19
2018-06-20T04:10:46.432Z,1016.20
2018-06-20T04:11:21.966Z,1016.18
2018-06-20T04:11:57.420Z,1016.20
2018-06-20T04:12:32.752Z,1016.21
2018-06-20T04:13:08.021Z,1016.21
2018-06-20T04:13:43.428Z,1016.18
2018-06-20T04:14:19.070Z,1016.17
2018-06-20T04:14:54.698Z,1016.13
2018-06-20T04:15:29.923Z,1016.19
2018-06-20T04:16:05.513Z,1016.16
2018-06-20T04:16:42.378Z,1016.17
2018-06-20T04:17:17.905Z,1016.21
2018-06-20T04:17:53.130Z,1016.20
2018-06-20T04:18:28.530Z,1016.13
2018-06-20T04:19:03.993Z,1016.15
2018-06-20T04:19:39.322Z,1016.17
2018-06-20T04:20:14.760Z,1016.14
2018-06-20T04:20:56.386Z,1016.14
2018-06-20T04:21:31.622Z,1016.11
2018-06-20T04:22:07.252Z,1016.14
2018-06-20T04:22:42.529Z,1016.14
2018-06-20T04:23:18.066Z,1016.15
2018-06-20T04:23:53.309Z,1016.13
2018-06-20T04:24:28.545Z,1016.16
2018-06-20T04:25:03.873Z,1016.17
2018-06-20T04:25:39.866Z,1016.14
2018-06-20T04:26:15.387Z,1016.16
2018-06-20T04:26:50.826Z,1016.17
2018-06-20T04:27:26.506Z,1016.18
2018-06-20T04:28:02.491Z,1016.16
2018-06-20T04:28:37.945Z,1016.12
2018-06-20T04:29:13.396Z,1016.12
2018-06-20T04:29:49.070Z,1016.13
2018-06-20T04:30:24.711Z,1016.10
2018-06-20T04:31:00.603Z,1016.10
2018-06-20T04:31:36.067Z,1016.07
2018-06-20T04:32:11.260Z,1016.08
2018-06-20T04:32:46.492Z,1016.07
2018-06-20T04:33:21.655Z,1016.09
2018-06-20T04:33:57.191Z,1016.05
2018-06-20T04:34:33.117Z,1016.04
2018-06-20T04:35:08.303Z,1016.08
2018-06-20T04:35:44.772Z,1016.06
2018-06-20T04:36:20.243Z,1016.08
2018-06-20T04:36:56.446Z,1015.99
2018-06-20T04:37:31.800Z,1016.01
2018-06-20T04:38:07.281Z,1016.05
2018-06-20T04:38:44.216Z,1016.02
2018-06-20T04:39:19.872Z,1016.07
2018-06-20T04:39:55.110Z,1015.99
2018-06-20T04:40:30.469Z,1016.04
2018-06-20T04:41:05.722Z,1016.05
2018-06-20T04:41:41.294Z,1016.05
2018-06-20T04:42:16.536Z,1016.01
2018-06-20T04:42:51.796Z,1016.04
2018-06-20T04:43:27.149Z,1016.05
2018-06-20T04:44:02.531Z,1016.06
2018-06-20T04:44:38.072Z,1016.03
2018-06-20T04:45:13.316Z,1016.07
2018-06-20T04:45:50.542Z,1016.08
2018-06-20T04:46:26.201Z,1016.04
2018-06-20T04:47:01.701Z,1016.09
2018-06-20T04:47:38.317Z,1016.09
2018-06-20T04:48:16.713Z,1016.07
2018-06-20T04:48:52.363Z,1016.08
2018-06-20T04:49:27.632Z,1016.11
2018-06-20T04:50:02.927Z,1016.07
2018-06-20T04:50:38.367Z,1016.10
2018-06-20T04:51:16.636Z,1016.08
2018-06-20T04:51:51.891Z,1016.03
2018-06-20T04:52:29.594Z,1016.06
2018-06-20T04:53:05.050Z,1016.07
2018-06-20T04:53:40.423Z,1016.03
2018-06-20T04:54:16.067Z,1016.04
2018-06-20T04:54:51.939Z,1016.02
2018-06-20T04:55:27.287Z,1016.02
2018-06-20T04:56:02.410Z,1015.99
2018-06-20T04:56:38.030Z,1015.99
2018-06-20T04:57:13.414Z,1016.03
2018-06-20T04:57:49.631Z,1016.00
2018-06-20T04:58:25.333Z,1016.02
2018-06-20T04:59:00.660Z,1016.02
2018-06-20T04:59:36.248Z,1016.01
2018-06-20T05:00:11.571Z,1016.00
2018-06-20T05:00:50.331Z,1015.98
2018-06-20T05:01:25.919Z,1015.97
2018-06-20T05:02:01.679Z,1015.99
2018-06-20T05:02:36.857Z,1015.98
2018-06-20T05:03:11.930Z,1015.98
2018-06-20T05:03:48.572Z,1015.99
2018-06-20T05:04:23.927Z,1016.00
2018-06-20T05:04:59.051Z,1015.98
2018-06-20T05:05:34.541Z,1015.96
2018-06-20T05:06:11.490Z,1015.97
2018-06-20T05:06:46.648Z,1015.97
2018-06-20T05:07:22.142Z,1015.95
2018-06-20T05:07:57.305Z,1015.95
2018-06-20T05:08:33.203Z,1015.96
2018-06-20T05:09:09.012Z,1015.95
2018-06-20T05:09:45.952Z,1015.92
2018-06-20T05:10:21.512Z,1015.95
2018-06-20T05:10:58.567Z,1015.96
2018-06-20T05:11:36.232Z,1015.98
2018-06-20T05:12:11.685Z,1015.96
2018-06-20T05:12:49.261Z,1015.98
2018-06-20T05:13:24.495Z,1015.93
2018-06-20T05:14:00.052Z,1015.92
2018-06-20T05:14:35.533Z,1015.91
2018-06-20T05:15:10.793Z,1015.94
2018-06-20T05:15:46.429Z,1015.95
2018-06-20T05:16:22.176Z,1015.92
2018-06-20T05:16:58.225Z,1015.92
2018-06-20T05:17:34.033Z,1015.95
2018-06-20T05:18:09.362Z,1015.91
2018-06-20T05:18:45.726Z,1015.92
2018-06-20T05:19:22.768Z,1015.91
2018-06-20T05:19:58.242Z,1015.90
2018-06-20T05:20:34.096Z,1015.90
2018-06-20T05:21:09.654Z,1015.89
2018-06-20T05:21:45.257Z,1015.87
2018-06-20T05:22:20.668Z,1015.91
2018-06-20T05:22:56.515Z,1015.87
2018-06-20T05:23:32.178Z,1015.88
2018-06-20T05:24:07.830Z,1015.88
2018-06-20T05:24:43.608Z,1015.88
2018-06-20T05:25:19.460Z,1015.90
2018-06-20T05:25:54.626Z,1015.88
2018-06-20T05:26:30.401Z,1015.84
2018-06-20T05:27:05.838Z,1015.86
2018-06-20T05:27:41.384Z,1015.86
2018-06-20T05:28:16.746Z,1015.84
2018-06-20T05:28:52.215Z,1015.89
2018-06-20T05:29:27.556Z,1015.84
2018-06-20T05:30:02.905Z,1015.84
2018-06-20T05:30:38.572Z,1015.84
2018-06-20T05:31:15.230Z,1015.84
2018-06-20T05:31:50.598Z,1015.85
2018-06-20T05:32:26.281Z,1015.83
2018-06-20T05:33:02.117Z,1015.94
2018-06-20T05:33:37.693Z,1015.85
2018-06-20T05:34:13.066Z,1015.86
2018-06-20T05:37:27.573Z,1015.88
2018-06-20T05:38:02.901Z,1015.90
2018-06-20T05:38:38.651Z,1015.88
2018-06-20T05:39:14.127Z,1015.87
2018-06-20T05:39:49.425Z,1015.88
2018-06-20T05:40:24.664Z,1015.91
2018-06-20T05:41:02.704Z,1015.90
2018-06-20T05:41:38.486Z,1015.90
2018-06-20T05:42:13.808Z,1015.90
2018-06-20T05:42:49.259Z,1015.91
2018-06-20T05:43:24.776Z,1015.91
2018-06-20T05:44:00.139Z,1015.90
2018-06-20T05:44:38.476Z,1015.89
2018-06-20T05:45:14.166Z,1015.91
2018-06-20T05:45:52.211Z,1015.88
2018-06-20T05:46:27.860Z,1015.89
2018-06-20T05:47:03.013Z,1015.87
2018-06-20T05:47:40.278Z,1015.91
2018-06-20T05:48:16.409Z,1015.89
2018-06-20T05:48:51.763Z,1015.90
2018-06-20T05:49:27.503Z,1015.91
2018-06-20T05:50:03.176Z,1015.94
2018-06-20T05:50:38.605Z,1015.91
2018-06-20T05:51:13.871Z,1015.90
2018-06-20T05:51:49.183Z,1015.89
2018-06-20T05:52:24.652Z,1015.92
2018-06-20T05:53:00.002Z,1015.91
2018-06-20T05:53:35.245Z,1015.87
2018-06-20T05:54:10.675Z,1015.85
2018-06-20T05:54:45.924Z,1015.87
2018-06-20T05:55:21.072Z,1015.93
2018-06-20T05:55:56.417Z,1015.88
2018-06-20T05:56:32.047Z,1015.89
2018-06-20T05:57:07.404Z,1015.88
2018-06-20T05:57:42.655Z,1015.93
2018-06-20T05:58:18.225Z,1015.95
2018-06-20T05:58:55.471Z,1015.93
2018-06-20T05:59:30.713Z,1015.91
2018-06-20T06:00:06.335Z,1015.92
2018-06-20T06:00:41.918Z,1015.90
2018-06-20T06:01:17.172Z,1015.91
2018-06-20T06:01:52.643Z,1015.92
2018-06-20T06:02:27.896Z,1015.90
2018-06-20T06:03:03.655Z,1015.93
2018-06-20T06:03:39.291Z,1015.92
2018-06-20T06:04:14.651Z,1015.90
2018-06-20T06:04:50.169Z,1015.90
2018-06-20T06:05:25.557Z,1015.94
2018-06-20T06:06:00.985Z,1015.90
2018-06-20T06:06:36.436Z,1015.97
2018-06-20T06:07:11.872Z,1015.95
2018-06-20T06:07:47.239Z,1015.93
2018-06-20T06:08:23.086Z,1015.90
2018-06-20T06:08:58.440Z,1015.95
2018-06-20T06:09:33.761Z,1015.95
2018-06-20T06:10:10.212Z,1015.92
2018-06-20T06:10:45.538Z,1015.95
2018-06-20T06:11:21.688Z,1015.91
2018-06-20T06:11:56.905Z,1015.94
2018-06-20T06:12:32.141Z,1015.95
2018-06-20T06:13:07.388Z,1016.00
2018-06-20T06:13:42.736Z,1016.00
2018-06-20T06:14:18.272Z,1015.94
2018-06-20T06:14:55.114Z,1016.01
2018-06-20T06:15:30.738Z,1015.99
2018-06-20T06:16:06.200Z,1015.99
2018-06-20T06:16:41.729Z,1015.96
2018-06-20T06:17:17.222Z,1015.98
2018-06-20T06:17:52.648Z,1015.97
2018-06-20T06:18:28.222Z,1015.99
2018-06-20T06:19:03.788Z,1015.98
2018-06-20T06:19:39.441Z,1015.99
2018-06-20T06:20:14.567Z,1015.97
2018-06-20T06:20:52.126Z,1015.98
2018-06-20T06:21:27.547Z,1015.97
2018-06-20T06:22:02.996Z,1015.99
2018-06-20T06:22:38.752Z,1015.98
2018-06-20T06:23:14.619Z,1015.98
2018-06-20T06:23:49.840Z,1016.02
2018-06-20T06:24:25.197Z,1016.02
2018-06-20T06:25:00.873Z,1016.01
2018-06-20T06:25:36.663Z,1016.04
2018-06-20T06:26:11.897Z,1016.03
2018-06-20T06:26:47.151Z,1016.02
2018-06-20T06:27:22.797Z,1016.01
2018-06-20T06:27:58.382Z,1016.04
2018-06-20T06:28:33.546Z,1016.00
2018-06-20T06:29:09.034Z,1016.02
2018-06-20T06:29:44.354Z,1015.99
2018-06-20T06:30:20.018Z,1016.03
2018-06-20T06:30:55.446Z,1016.01
2018-06-20T06:31:30.789Z,1016.05
2018-06-20T06:32:06.431Z,1016.02
2018-06-20T06:32:42.350Z,1016.02
2018-06-20T06:33:17.773Z,1016.05
2018-06-20T06:33:53.155Z,1016.03
2018-06-20T06:34:28.683Z,1016.02
2018-06-20T06:35:04.242Z,1016.02
2018-06-20T06:35:39.601Z,1015.99
2018-06-20T06:36:14.879Z,1015.97
2018-06-20T06:36:50.336Z,1015.96
2018-06-20T06:37:25.908Z,1015.96
2018-06-20T06:38:01.638Z,1015.97
2018-06-20T06:38:37.243Z,1015.97
2018-06-20T06:39:12.774Z,1015.98
2018-06-20T06:39:48.250Z,1015.99
2018-06-20T06:40:23.693Z,1015.97
2018-06-20T06:40:59.921Z,1016.01
2018-06-20T06:41:35.053Z,1016.00
2018-06-20T06:42:10.867Z,1016.00
2018-06-20T06:42:46.094Z,1016.01
2018-06-20T06:43:21.432Z,1015.98
2018-06-20T06:43:56.891Z,1015.99
2018-06-20T06:44:32.208Z,1016.03
2018-06-20T06:45:07.481Z,1016.02
2018-06-20T06:45:43.029Z,1016.03
2018-06-20T06:46:18.350Z,1016.05
2018-06-20T06:46:56.910Z,1016.02
2018-06-20T06:47:32.505Z,1016.00
2018-06-20T06:48:08.302Z,1016.03
2018-06-20T06:48:43.915Z,1016.04
2018-06-20T06:49:19.155Z,1016.04
2018-06-20T06:49:54.830Z,1016.05
2018-06-20T06:50:30.359Z,1016.04
2018-06-20T06:51:05.781Z,1016.03
2018-06-20T06:51:41.046Z,1016.04
2018-06-20T06:52:16.495Z,1016.05
2018-06-20T06:52:51.846Z,1016.04
2018-06-20T06:53:27.863Z,1016.03
2018-06-20T06:54:03.407Z,1016.07
2018-06-20T06:54:38.817Z,1016.01
2018-06-20T06:55:14.099Z,1016.06
2018-06-20T06:55:49.814Z,1016.02
2018-06-20T06:56:25.384Z,1016.06
2018-06-20T06:57:00.713Z,1016.04
2018-06-20T06:57:36.674Z,1016.05
2018-06-20T06:58:12.090Z,1016.03
2018-06-20T06:58:47.537Z,1016.02
2018-06-20T06:59:22.768Z,1016.03
2018-06-20T06:59:58.212Z,1015.99
2018-06-20T07:00:33.433Z,1015.99
2018-06-20T07:01:08.944Z,1016.00
2018-06-20T07:01:44.469Z,1016.02
2018-06-20T07:02:19.723Z,1015.99
2018-06-20T07:02:55.025Z,1016.01
2018-06-20T07:03:30.348Z,1016.02
2018-06-20T07:04:05.472Z,1016.00
2018-06-20T07:04:41.134Z,1015.98
2018-06-20T07:05:16.379Z,1016.01
2018-06-20T07:05:54.559Z,1015.98
2018-06-20T07:06:30.127Z,1015.98
2018-06-20T07:07:05.779Z,1015.97
2018-06-20T07:07:41.108Z,1016.00
2018-06-20T07:08:16.487Z,1015.99
2018-06-20T07:08:51.780Z,1015.98
2018-06-20T07:09:27.014Z,1015.96
2018-06-20T07:10:02.317Z,1015.96
2018-06-20T07:10:37.647Z,1015.95
2018-06-20T07:11:12.968Z,1015.95
2018-06-20T07:11:48.402Z,1015.91
2018-06-20T07:12:23.782Z,1015.94